sensor_id;sensor_type;location;lat;lon;timestamp;P1;durP1;ratioP1;P2;durP2;ratioP2
35294;SDS011;21413;48.032;7.764;2023-04-24T00:02:15;0.60;;;0.60;;
35294;SDS011;21413;48.032;7.764;2023-04-24T00:04:41;0.60;;;0.60;;
35294;SDS011;21413;48.032;7.764;2023-04-24T00:07:10;0.67;;;0.67;;
35294;SDS011;21413;48.032;7.764;2023-04-24T00:09:36;0.70;;;0.70;;
35294;SDS011;21413;48.032;7.764;2023-04-24T00:12:04;0.60;;;0.60;;
35294;SDS011;21413;48.032;7.764;2023-04-24T00:14:30;0.80;;;0.80;;
35294;SDS011;21413;48.032;7.764;2023-04-24T00:16:56;1.03;;;0.73;;
35294;SDS011;21413;48.032;7.764;2023-04-24T00:19:22;0.70;;;0.70;;
35294;SDS011;21413;48.032;7.764;2023-04-24T00:21:48;0.70;;;0.70;;
35294;SDS011;21413;48.032;7.764;2023-04-24T00:24:15;3.43;;;0.97;;
35294;SDS011;21413;48.032;7.764;2023-04-24T00:26:41;0.90;;;0.60;;
35294;SDS011;21413;48.032;7.764;2023-04-24T00:29:07;0.77;;;0.77;;
35294;SDS011;21413;48.032;7.764;2023-04-24T00:31:33;0.97;;;0.70;;
35294;SDS011;21413;48.032;7.764;2023-04-24T00:33:59;0.53;;;0.53;;
35294;SDS011;21413;48.032;7.764;2023-04-24T00:36:28;0.70;;;0.70;;
35294;SDS011;21413;48.032;7.764;2023-04-24T00:38:56;0.80;;;0.80;;
35294;SDS011;21413;48.032;7.764;2023-04-24T00:41:24;0.67;;;0.67;;
35294;SDS011;21413;48.032;7.764;2023-04-24T00:43:53;1.17;;;0.70;;
35294;SDS011;21413;48.032;7.764;2023-04-24T00:46:19;2.97;;;0.70;;
35294;SDS011;21413;48.032;7.764;2023-04-24T00:48:46;1.93;;;1.00;;
35294;SDS011;21413;48.032;7.764;2023-04-24T00:51:12;0.80;;;0.80;;
35294;SDS011;21413;48.032;7.764;2023-04-24T00:53:38;1.70;;;0.80;;
35294;SDS011;21413;48.032;7.764;2023-04-24T00:56:04;0.77;;;0.77;;
35294;SDS011;21413;48.032;7.764;2023-04-24T00:58:32;1.23;;;0.70;;
35294;SDS011;21413;48.032;7.764;2023-04-24T01:01:01;1.10;;;0.70;;
35294;SDS011;21413;48.032;7.764;2023-04-24T01:03:28;3.00;;;0.67;;
35294;SDS011;21413;48.032;7.764;2023-04-24T01:05:55;0.60;;;0.60;;
35294;SDS011;21413;48.032;7.764;2023-04-24T01:08:23;0.70;;;0.70;;
35294;SDS011;21413;48.032;7.764;2023-04-24T01:10:49;2.30;;;0.60;;
35294;SDS011;21413;48.032;7.764;2023-04-24T01:13:17;0.63;;;0.63;;
35294;SDS011;21413;48.032;7.764;2023-04-24T01:15:44;0.63;;;0.63;;
35294;SDS011;21413;48.032;7.764;2023-04-24T01:18:12;1.33;;;0.80;;
35294;SDS011;21413;48.032;7.764;2023-04-24T01:20:40;0.77;;;0.77;;
35294;SDS011;21413;48.032;7.764;2023-04-24T01:23:06;0.97;;;0.80;;
35294;SDS011;21413;48.032;7.764;2023-04-24T01:25:35;0.50;;;0.50;;
35294;SDS011;21413;48.032;7.764;2023-04-24T01:28:01;2.00;;;0.60;;
35294;SDS011;21413;48.032;7.764;2023-04-24T01:30:29;1.07;;;0.70;;
35294;SDS011;21413;48.032;7.764;2023-04-24T01:32:58;0.60;;;0.60;;
35294;SDS011;21413;48.032;7.764;2023-04-24T01:35:24;0.60;;;0.60;;
35294;SDS011;21413;48.032;7.764;2023-04-24T01:37:53;0.60;;;0.60;;
35294;SDS011;21413;48.032;7.764;2023-04-24T01:40:19;0.67;;;0.50;;
35294;SDS011;21413;48.032;7.764;2023-04-24T01:42:45;2.80;;;0.70;;
35294;SDS011;21413;48.032;7.764;2023-04-24T01:45:11;0.80;;;0.80;;
35294;SDS011;21413;48.032;7.764;2023-04-24T01:47:38;0.60;;;0.60;;
35294;SDS011;21413;48.032;7.764;2023-04-24T01:50:04;0.60;;;0.60;;
35294;SDS011;21413;48.032;7.764;2023-04-24T01:52:32;0.90;;;0.90;;
35294;SDS011;21413;48.032;7.764;2023-04-24T01:55:00;0.50;;;0.50;;
35294;SDS011;21413;48.032;7.764;2023-04-24T01:57:28;1.10;;;0.90;;
35294;SDS011;21413;48.032;7.764;2023-04-24T01:59:55;0.70;;;0.70;;
35294;SDS011;21413;48.032;7.764;2023-04-24T02:02:21;0.80;;;0.80;;
35294;SDS011;21413;48.032;7.764;2023-04-24T02:04:49;1.77;;;0.80;;
35294;SDS011;21413;48.032;7.764;2023-04-24T02:07:15;1.00;;;0.77;;
35294;SDS011;21413;48.032;7.764;2023-04-24T02:09:41;1.00;;;0.90;;
35294;SDS011;21413;48.032;7.764;2023-04-24T02:12:07;2.40;;;1.00;;
35294;SDS011;21413;48.032;7.764;2023-04-24T02:14:37;3.07;;;1.23;;
35294;SDS011;21413;48.032;7.764;2023-04-24T02:17:03;0.77;;;0.70;;
35294;SDS011;21413;48.032;7.764;2023-04-24T02:19:30;2.00;;;0.70;;
35294;SDS011;21413;48.032;7.764;2023-04-24T02:21:56;1.03;;;0.73;;
35294;SDS011;21413;48.032;7.764;2023-04-24T02:24:21;1.00;;;0.70;;
35294;SDS011;21413;48.032;7.764;2023-04-24T02:26:47;0.73;;;0.73;;
35294;SDS011;21413;48.032;7.764;2023-04-24T02:29:13;1.17;;;1.17;;
35294;SDS011;21413;48.032;7.764;2023-04-24T02:31:40;1.00;;;1.00;;
35294;SDS011;21413;48.032;7.764;2023-04-24T02:34:08;1.13;;;0.80;;
35294;SDS011;21413;48.032;7.764;2023-04-24T02:36:34;0.90;;;0.90;;
35294;SDS011;21413;48.032;7.764;2023-04-24T02:39:00;2.20;;;0.73;;
35294;SDS011;21413;48.032;7.764;2023-04-24T02:41:26;1.67;;;1.20;;
35294;SDS011;21413;48.032;7.764;2023-04-24T02:43:58;2.10;;;1.20;;
35294;SDS011;21413;48.032;7.764;2023-04-24T02:46:29;1.70;;;0.80;;
35294;SDS011;21413;48.032;7.764;2023-04-24T02:48:55;1.07;;;1.07;;
35294;SDS011;21413;48.032;7.764;2023-04-24T02:51:21;2.83;;;0.70;;
35294;SDS011;21413;48.032;7.764;2023-04-24T02:53:47;2.50;;;0.90;;
35294;SDS011;21413;48.032;7.764;2023-04-24T02:56:13;0.83;;;0.63;;
35294;SDS011;21413;48.032;7.764;2023-04-24T02:58:39;3.07;;;0.80;;
35294;SDS011;21413;48.032;7.764;2023-04-24T03:01:05;0.60;;;0.60;;
35294;SDS011;21413;48.032;7.764;2023-04-24T03:03:34;3.83;;;0.90;;
35294;SDS011;21413;48.032;7.764;2023-04-24T03:06:02;1.20;;;0.87;;
35294;SDS011;21413;48.032;7.764;2023-04-24T03:08:30;0.87;;;0.70;;
35294;SDS011;21413;48.032;7.764;2023-04-24T03:10:56;0.70;;;0.70;;
35294;SDS011;21413;48.032;7.764;2023-04-24T03:13:22;3.13;;;1.10;;
35294;SDS011;21413;48.032;7.764;2023-04-24T03:15:48;3.70;;;0.80;;
35294;SDS011;21413;48.032;7.764;2023-04-24T03:18:14;1.60;;;1.00;;
35294;SDS011;21413;48.032;7.764;2023-04-24T03:20:45;10.03;;;1.00;;
35294;SDS011;21413;48.032;7.764;2023-04-24T03:23:11;3.80;;;0.90;;
35294;SDS011;21413;48.032;7.764;2023-04-24T03:25:37;1.70;;;0.80;;
35294;SDS011;21413;48.032;7.764;2023-04-24T03:28:03;1.70;;;0.80;;
35294;SDS011;21413;48.032;7.764;2023-04-24T03:30:29;1.50;;;0.83;;
35294;SDS011;21413;48.032;7.764;2023-04-24T03:32:56;1.77;;;0.73;;
35294;SDS011;21413;48.032;7.764;2023-04-24T03:35:21;0.90;;;0.90;;
35294;SDS011;21413;48.032;7.764;2023-04-24T03:37:47;0.90;;;0.90;;
35294;SDS011;21413;48.032;7.764;2023-04-24T03:40:13;0.97;;;0.90;;
35294;SDS011;21413;48.032;7.764;2023-04-24T03:42:39;0.80;;;0.80;;
35294;SDS011;21413;48.032;7.764;2023-04-24T03:45:06;1.17;;;0.90;;
35294;SDS011;21413;48.032;7.764;2023-04-24T03:47:34;1.43;;;1.33;;
35294;SDS011;21413;48.032;7.764;2023-04-24T03:50:00;1.00;;;0.73;;
35294;SDS011;21413;48.032;7.764;2023-04-24T03:52:26;2.60;;;1.00;;
35294;SDS011;21413;48.032;7.764;2023-04-24T03:54:52;3.13;;;1.10;;
35294;SDS011;21413;48.032;7.764;2023-04-24T03:57:18;2.13;;;0.77;;
35294;SDS011;21413;48.032;7.764;2023-04-24T03:59:44;3.73;;;0.87;;
35294;SDS011;21413;48.032;7.764;2023-04-24T04:02:10;3.30;;;1.37;;
35294;SDS011;21413;48.032;7.764;2023-04-24T04:04:36;3.33;;;1.00;;
35294;SDS011;21413;48.032;7.764;2023-04-24T04:07:02;0.93;;;0.93;;
35294;SDS011;21413;48.032;7.764;2023-04-24T04:09:28;3.70;;;1.10;;
35294;SDS011;21413;48.032;7.764;2023-04-24T04:11:57;9.20;;;1.60;;
35294;SDS011;21413;48.032;7.764;2023-04-24T04:14:23;0.80;;;0.80;;
35294;SDS011;21413;48.032;7.764;2023-04-24T04:16:49;7.30;;;1.00;;
35294;SDS011;21413;48.032;7.764;2023-04-24T04:19:16;1.57;;;0.90;;
35294;SDS011;21413;48.032;7.764;2023-04-24T04:21:42;1.83;;;1.20;;
35294;SDS011;21413;48.032;7.764;2023-04-24T04:24:08;14.97;;;11.00;;
35294;SDS011;21413;48.032;7.764;2023-04-24T04:26:36;9.43;;;6.30;;
35294;SDS011;21413;48.032;7.764;2023-04-24T04:29:05;1.77;;;1.67;;
35294;SDS011;21413;48.032;7.764;2023-04-24T04:31:31;1.67;;;1.20;;
35294;SDS011;21413;48.032;7.764;2023-04-24T04:33:57;4.03;;;1.47;;
35294;SDS011;21413;48.032;7.764;2023-04-24T04:36:23;1.37;;;1.20;;
35294;SDS011;21413;48.032;7.764;2023-04-24T04:38:50;1.40;;;1.33;;
35294;SDS011;21413;48.032;7.764;2023-04-24T04:41:16;2.10;;;1.80;;
35294;SDS011;21413;48.032;7.764;2023-04-24T04:43:45;2.33;;;1.43;;
35294;SDS011;21413;48.032;7.764;2023-04-24T04:46:12;2.00;;;1.30;;
35294;SDS011;21413;48.032;7.764;2023-04-24T04:48:40;1.20;;;1.20;;
35294;SDS011;21413;48.032;7.764;2023-04-24T04:51:06;1.50;;;1.40;;
35294;SDS011;21413;48.032;7.764;2023-04-24T04:53:32;13.13;;;5.97;;
35294;SDS011;21413;48.032;7.764;2023-04-24T04:55:58;1.30;;;1.30;;
35294;SDS011;21413;48.032;7.764;2023-04-24T04:58:24;2.60;;;1.40;;
35294;SDS011;21413;48.032;7.764;2023-04-24T05:00:50;1.70;;;1.60;;
35294;SDS011;21413;48.032;7.764;2023-04-24T05:03:17;3.23;;;1.60;;
35294;SDS011;21413;48.032;7.764;2023-04-24T05:05:43;1.90;;;1.43;;
35294;SDS011;21413;48.032;7.764;2023-04-24T05:08:09;1.40;;;1.40;;
35294;SDS011;21413;48.032;7.764;2023-04-24T05:10:35;1.60;;;1.50;;
35294;SDS011;21413;48.032;7.764;2023-04-24T05:13:02;1.60;;;1.50;;
35294;SDS011;21413;48.032;7.764;2023-04-24T05:15:28;2.17;;;1.90;;
35294;SDS011;21413;48.032;7.764;2023-04-24T05:17:55;4.17;;;2.83;;
35294;SDS011;21413;48.032;7.764;2023-04-24T05:20:21;2.13;;;2.00;;
35294;SDS011;21413;48.032;7.764;2023-04-24T05:22:49;2.07;;;1.97;;
35294;SDS011;21413;48.032;7.764;2023-04-24T05:25:15;2.20;;;2.10;;
35294;SDS011;21413;48.032;7.764;2023-04-24T05:27:41;1.90;;;1.80;;
35294;SDS011;21413;48.032;7.764;2023-04-24T05:30:07;3.07;;;2.13;;
35294;SDS011;21413;48.032;7.764;2023-04-24T05:32:34;2.20;;;2.10;;
35294;SDS011;21413;48.032;7.764;2023-04-24T05:35:00;4.47;;;2.30;;
35294;SDS011;21413;48.032;7.764;2023-04-24T05:37:26;4.20;;;2.13;;
35294;SDS011;21413;48.032;7.764;2023-04-24T05:39:52;2.77;;;2.00;;
35294;SDS011;21413;48.032;7.764;2023-04-24T05:42:21;2.70;;;2.03;;
35294;SDS011;21413;48.032;7.764;2023-04-24T05:44:49;4.93;;;2.87;;
35294;SDS011;21413;48.032;7.764;2023-04-24T05:47:15;8.73;;;2.50;;
35294;SDS011;21413;48.032;7.764;2023-04-24T05:49:41;2.57;;;2.40;;
35294;SDS011;21413;48.032;7.764;2023-04-24T05:52:07;9.23;;;2.43;;
35294;SDS011;21413;48.032;7.764;2023-04-24T05:54:34;2.77;;;2.57;;
35294;SDS011;21413;48.032;7.764;2023-04-24T05:57:02;2.40;;;2.30;;
35294;SDS011;21413;48.032;7.764;2023-04-24T05:59:32;2.70;;;2.50;;
35294;SDS011;21413;48.032;7.764;2023-04-24T06:01:58;5.63;;;3.50;;
35294;SDS011;21413;48.032;7.764;2023-04-24T06:04:24;2.60;;;2.50;;
35294;SDS011;21413;48.032;7.764;2023-04-24T06:06:50;4.10;;;2.70;;
35294;SDS011;21413;48.032;7.764;2023-04-24T06:09:23;4.43;;;2.73;;
35294;SDS011;21413;48.032;7.764;2023-04-24T06:11:50;3.23;;;3.00;;
35294;SDS011;21413;48.032;7.764;2023-04-24T06:14:19;3.17;;;3.07;;
35294;SDS011;21413;48.032;7.764;2023-04-24T06:16:46;4.50;;;3.07;;
35294;SDS011;21413;48.032;7.764;2023-04-24T06:19:12;2.83;;;2.50;;
35294;SDS011;21413;48.032;7.764;2023-04-24T06:21:37;2.90;;;2.70;;
35294;SDS011;21413;48.032;7.764;2023-04-24T06:24:03;3.33;;;3.17;;
35294;SDS011;21413;48.032;7.764;2023-04-24T06:26:32;7.13;;;3.23;;
35294;SDS011;21413;48.032;7.764;2023-04-24T06:28:58;4.70;;;3.10;;
35294;SDS011;21413;48.032;7.764;2023-04-24T06:31:25;2.17;;;2.17;;
35294;SDS011;21413;48.032;7.764;2023-04-24T06:33:51;3.73;;;3.40;;
35294;SDS011;21413;48.032;7.764;2023-04-24T06:36:17;4.50;;;2.70;;
35294;SDS011;21413;48.032;7.764;2023-04-24T06:38:43;7.60;;;2.90;;
35294;SDS011;21413;48.032;7.764;2023-04-24T06:41:11;3.27;;;3.17;;
35294;SDS011;21413;48.032;7.764;2023-04-24T06:43:40;3.67;;;3.37;;
35294;SDS011;21413;48.032;7.764;2023-04-24T06:46:06;3.87;;;2.90;;
35294;SDS011;21413;48.032;7.764;2023-04-24T06:48:32;2.77;;;2.57;;
35294;SDS011;21413;48.032;7.764;2023-04-24T06:51:00;2.57;;;2.47;;
35294;SDS011;21413;48.032;7.764;2023-04-24T06:53:29;2.97;;;2.80;;
35294;SDS011;21413;48.032;7.764;2023-04-24T06:55:57;3.40;;;3.20;;
35294;SDS011;21413;48.032;7.764;2023-04-24T06:58:24;3.00;;;2.70;;
35294;SDS011;21413;48.032;7.764;2023-04-24T07:00:50;3.60;;;2.53;;
35294;SDS011;21413;48.032;7.764;2023-04-24T07:03:16;2.60;;;2.60;;
35294;SDS011;21413;48.032;7.764;2023-04-24T07:05:42;2.10;;;2.10;;
35294;SDS011;21413;48.032;7.764;2023-04-24T07:08:08;2.60;;;2.50;;
35294;SDS011;21413;48.032;7.764;2023-04-24T07:10:36;3.40;;;2.40;;
35294;SDS011;21413;48.032;7.764;2023-04-24T07:13:05;3.37;;;2.97;;
35294;SDS011;21413;48.032;7.764;2023-04-24T07:15:31;3.00;;;2.63;;
35294;SDS011;21413;48.032;7.764;2023-04-24T07:18:00;7.43;;;2.77;;
35294;SDS011;21413;48.032;7.764;2023-04-24T07:20:29;2.77;;;2.57;;
35294;SDS011;21413;48.032;7.764;2023-04-24T07:22:55;2.37;;;2.27;;
35294;SDS011;21413;48.032;7.764;2023-04-24T07:25:21;2.47;;;2.37;;
35294;SDS011;21413;48.032;7.764;2023-04-24T07:27:47;2.10;;;2.10;;
35294;SDS011;21413;48.032;7.764;2023-04-24T07:30:14;2.43;;;2.27;;
35294;SDS011;21413;48.032;7.764;2023-04-24T07:32:39;2.40;;;2.30;;
35294;SDS011;21413;48.032;7.764;2023-04-24T07:35:05;2.17;;;2.17;;
35294;SDS011;21413;48.032;7.764;2023-04-24T07:37:32;2.17;;;2.07;;
35294;SDS011;21413;48.032;7.764;2023-04-24T07:39:58;2.57;;;2.53;;
35294;SDS011;21413;48.032;7.764;2023-04-24T07:42:24;2.60;;;2.60;;
35294;SDS011;21413;48.032;7.764;2023-04-24T07:44:50;2.50;;;1.73;;
35294;SDS011;21413;48.032;7.764;2023-04-24T07:47:16;3.37;;;3.17;;
35294;SDS011;21413;48.032;7.764;2023-04-24T07:49:45;3.03;;;2.27;;
35294;SDS011;21413;48.032;7.764;2023-04-24T07:52:11;2.83;;;2.73;;
35294;SDS011;21413;48.032;7.764;2023-04-24T07:54:36;1.90;;;1.80;;
35294;SDS011;21413;48.032;7.764;2023-04-24T07:57:02;2.53;;;2.10;;
35294;SDS011;21413;48.032;7.764;2023-04-24T07:59:29;2.33;;;2.23;;
35294;SDS011;21413;48.032;7.764;2023-04-24T08:01:55;2.50;;;2.10;;
35294;SDS011;21413;48.032;7.764;2023-04-24T08:04:23;2.40;;;2.20;;
35294;SDS011;21413;48.032;7.764;2023-04-24T08:06:49;2.90;;;2.80;;
35294;SDS011;21413;48.032;7.764;2023-04-24T08:09:15;3.00;;;2.77;;
35294;SDS011;21413;48.032;7.764;2023-04-24T08:11:41;3.90;;;2.67;;
35294;SDS011;21413;48.032;7.764;2023-04-24T08:14:07;2.63;;;2.40;;
35294;SDS011;21413;48.032;7.764;2023-04-24T08:16:34;6.10;;;2.37;;
35294;SDS011;21413;48.032;7.764;2023-04-24T08:19:00;5.70;;;2.37;;
35294;SDS011;21413;48.032;7.764;2023-04-24T08:21:26;2.27;;;2.17;;
35294;SDS011;21413;48.032;7.764;2023-04-24T08:23:52;2.30;;;2.20;;
35294;SDS011;21413;48.032;7.764;2023-04-24T08:26:23;2.37;;;1.50;;
35294;SDS011;21413;48.032;7.764;2023-04-24T08:28:49;2.80;;;2.07;;
35294;SDS011;21413;48.032;7.764;2023-04-24T08:31:15;1.53;;;1.43;;
35294;SDS011;21413;48.032;7.764;2023-04-24T08:33:41;1.50;;;1.37;;
35294;SDS011;21413;48.032;7.764;2023-04-24T08:36:10;1.43;;;1.40;;
35294;SDS011;21413;48.032;7.764;2023-04-24T08:38:36;4.63;;;1.70;;
35294;SDS011;21413;48.032;7.764;2023-04-24T08:41:03;3.57;;;2.00;;
35294;SDS011;21413;48.032;7.764;2023-04-24T08:43:30;1.23;;;1.23;;
35294;SDS011;21413;48.032;7.764;2023-04-24T08:45:57;2.40;;;1.67;;
35294;SDS011;21413;48.032;7.764;2023-04-24T08:48:24;2.33;;;1.77;;
35294;SDS011;21413;48.032;7.764;2023-04-24T08:50:50;2.60;;;1.60;;
35294;SDS011;21413;48.032;7.764;2023-04-24T08:53:16;2.37;;;1.67;;
35294;SDS011;21413;48.032;7.764;2023-04-24T08:55:43;1.73;;;1.63;;
35294;SDS011;21413;48.032;7.764;2023-04-24T08:58:09;1.60;;;1.50;;
35294;SDS011;21413;48.032;7.764;2023-04-24T09:00:35;1.40;;;1.30;;
35294;SDS011;21413;48.032;7.764;2023-04-24T09:03:02;2.30;;;1.37;;
35294;SDS011;21413;48.032;7.764;2023-04-24T09:05:31;1.80;;;1.43;;
35294;SDS011;21413;48.032;7.764;2023-04-24T09:07:58;1.50;;;1.50;;
35294;SDS011;21413;48.032;7.764;2023-04-24T09:10:25;3.47;;;1.50;;
35294;SDS011;21413;48.032;7.764;2023-04-24T09:12:52;1.07;;;1.07;;
35294;SDS011;21413;48.032;7.764;2023-04-24T09:15:20;1.50;;;1.40;;
35294;SDS011;21413;48.032;7.764;2023-04-24T09:17:46;2.40;;;1.70;;
35294;SDS011;21413;48.032;7.764;2023-04-24T09:20:13;3.17;;;1.23;;
35294;SDS011;21413;48.032;7.764;2023-04-24T09:22:39;2.23;;;1.60;;
35294;SDS011;21413;48.032;7.764;2023-04-24T09:25:06;1.60;;;1.60;;
35294;SDS011;21413;48.032;7.764;2023-04-24T09:27:32;2.53;;;1.50;;
35294;SDS011;21413;48.032;7.764;2023-04-24T09:29:59;2.40;;;1.20;;
35294;SDS011;21413;48.032;7.764;2023-04-24T09:32:27;1.33;;;1.23;;
35294;SDS011;21413;48.032;7.764;2023-04-24T09:35:09;3.80;;;1.20;;
35294;SDS011;21413;48.032;7.764;2023-04-24T09:37:43;1.60;;;1.50;;
35294;SDS011;21413;48.032;7.764;2023-04-24T09:40:10;3.40;;;1.70;;
35294;SDS011;21413;48.032;7.764;2023-04-24T09:42:37;1.37;;;1.37;;
35294;SDS011;21413;48.032;7.764;2023-04-24T09:45:03;1.30;;;1.20;;
35294;SDS011;21413;48.032;7.764;2023-04-24T09:47:38;4.13;;;1.30;;
35294;SDS011;21413;48.032;7.764;2023-04-24T09:52:39;2.57;;;1.80;;
35294;SDS011;21413;48.032;7.764;2023-04-24T09:55:10;1.07;;;1.00;;
35294;SDS011;21413;48.032;7.764;2023-04-24T09:57:40;1.73;;;1.00;;
35294;SDS011;21413;48.032;7.764;2023-04-24T10:00:12;2.47;;;1.27;;
35294;SDS011;21413;48.032;7.764;2023-04-24T10:02:38;0.70;;;0.70;;
35294;SDS011;21413;48.032;7.764;2023-04-24T10:05:04;1.90;;;1.03;;
35294;SDS011;21413;48.032;7.764;2023-04-24T10:07:32;3.27;;;0.80;;
35294;SDS011;21413;48.032;7.764;2023-04-24T10:09:58;1.20;;;1.10;;
35294;SDS011;21413;48.032;7.764;2023-04-24T10:12:25;0.70;;;0.70;;
35294;SDS011;21413;48.032;7.764;2023-04-24T10:14:51;1.57;;;1.10;;
35294;SDS011;21413;48.032;7.764;2023-04-24T10:17:17;1.83;;;1.33;;
35294;SDS011;21413;48.032;7.764;2023-04-24T10:19:43;0.80;;;0.80;;
35294;SDS011;21413;48.032;7.764;2023-04-24T10:22:09;0.70;;;0.70;;
35294;SDS011;21413;48.032;7.764;2023-04-24T10:24:35;2.30;;;1.00;;
35294;SDS011;21413;48.032;7.764;2023-04-24T10:27:03;0.63;;;0.63;;
35294;SDS011;21413;48.032;7.764;2023-04-24T10:29:29;0.90;;;0.70;;
35294;SDS011;21413;48.032;7.764;2023-04-24T10:31:59;0.80;;;0.80;;
35294;SDS011;21413;48.032;7.764;2023-04-24T10:34:25;0.90;;;0.90;;
35294;SDS011;21413;48.032;7.764;2023-04-24T10:36:51;1.33;;;1.00;;
35294;SDS011;21413;48.032;7.764;2023-04-24T10:39:18;1.43;;;1.33;;
35294;SDS011;21413;48.032;7.764;2023-04-24T10:41:48;1.20;;;1.10;;
35294;SDS011;21413;48.032;7.764;2023-04-24T10:44:16;1.27;;;1.10;;
35294;SDS011;21413;48.032;7.764;2023-04-24T10:46:43;0.93;;;0.93;;
35294;SDS011;21413;48.032;7.764;2023-04-24T10:49:10;1.63;;;0.90;;
35294;SDS011;21413;48.032;7.764;2023-04-24T10:51:51;1.53;;;0.77;;
35294;SDS011;21413;48.032;7.764;2023-04-24T10:54:21;0.87;;;0.87;;
35294;SDS011;21413;48.032;7.764;2023-04-24T10:56:50;1.10;;;1.10;;
35294;SDS011;21413;48.032;7.764;2023-04-24T10:59:34;3.40;;;1.30;;
35294;SDS011;21413;48.032;7.764;2023-04-24T11:02:04;0.90;;;0.90;;
35294;SDS011;21413;48.032;7.764;2023-04-24T11:04:33;1.20;;;1.10;;
35294;SDS011;21413;48.032;7.764;2023-04-24T11:07:00;1.27;;;1.27;;
35294;SDS011;21413;48.032;7.764;2023-04-24T11:09:35;1.17;;;1.07;;
35294;SDS011;21413;48.032;7.764;2023-04-24T11:15:01;1.00;;;0.90;;
35294;SDS011;21413;48.032;7.764;2023-04-24T11:17:34;9.43;;;0.90;;
35294;SDS011;21413;48.032;7.764;2023-04-24T11:22:35;1.13;;;1.03;;
35294;SDS011;21413;48.032;7.764;2023-04-24T11:25:02;1.27;;;1.20;;
35294;SDS011;21413;48.032;7.764;2023-04-24T11:27:47;1.37;;;1.27;;
35294;SDS011;21413;48.032;7.764;2023-04-24T11:30:16;1.57;;;1.10;;
35294;SDS011;21413;48.032;7.764;2023-04-24T11:32:42;1.10;;;1.00;;
35294;SDS011;21413;48.032;7.764;2023-04-24T11:35:13;1.40;;;1.30;;
35294;SDS011;21413;48.032;7.764;2023-04-24T11:37:44;1.10;;;1.10;;
35294;SDS011;21413;48.032;7.764;2023-04-24T11:40:11;3.33;;;1.20;;
35294;SDS011;21413;48.032;7.764;2023-04-24T11:42:41;1.53;;;1.53;;
35294;SDS011;21413;48.032;7.764;2023-04-24T11:45:11;1.03;;;1.00;;
35294;SDS011;21413;48.032;7.764;2023-04-24T11:47:37;1.00;;;1.00;;
35294;SDS011;21413;48.032;7.764;2023-04-24T11:50:05;5.10;;;1.60;;
35294;SDS011;21413;48.032;7.764;2023-04-24T11:52:31;1.37;;;1.27;;
35294;SDS011;21413;48.032;7.764;2023-04-24T11:54:57;1.23;;;0.97;;
35294;SDS011;21413;48.032;7.764;2023-04-24T11:57:24;1.30;;;1.20;;
35294;SDS011;21413;48.032;7.764;2023-04-24T11:59:52;1.40;;;1.30;;
35294;SDS011;21413;48.032;7.764;2023-04-24T12:02:22;1.40;;;1.30;;
35294;SDS011;21413;48.032;7.764;2023-04-24T12:04:51;2.60;;;1.53;;
35294;SDS011;21413;48.032;7.764;2023-04-24T12:07:17;1.00;;;1.00;;
35294;SDS011;21413;48.032;7.764;2023-04-24T12:12:12;2.93;;;0.90;;
35294;SDS011;21413;48.032;7.764;2023-04-24T12:14:47;0.90;;;0.90;;
35294;SDS011;21413;48.032;7.764;2023-04-24T12:17:14;1.20;;;1.03;;
35294;SDS011;21413;48.032;7.764;2023-04-24T12:19:49;3.50;;;1.03;;
35294;SDS011;21413;48.032;7.764;2023-04-24T12:22:15;1.50;;;1.07;;
35294;SDS011;21413;48.032;7.764;2023-04-24T12:24:58;1.13;;;1.10;;
35294;SDS011;21413;48.032;7.764;2023-04-24T12:27:24;1.13;;;1.03;;
35294;SDS011;21413;48.032;7.764;2023-04-24T12:29:51;1.10;;;1.10;;
35294;SDS011;21413;48.032;7.764;2023-04-24T12:32:17;0.80;;;0.80;;
35294;SDS011;21413;48.032;7.764;2023-04-24T12:34:43;2.40;;;1.23;;
35294;SDS011;21413;48.032;7.764;2023-04-24T12:37:10;1.20;;;1.20;;
35294;SDS011;21413;48.032;7.764;2023-04-24T12:39:36;1.53;;;1.30;;
35294;SDS011;21413;48.032;7.764;2023-04-24T12:42:04;2.33;;;1.10;;
35294;SDS011;21413;48.032;7.764;2023-04-24T12:44:31;1.43;;;1.20;;
35294;SDS011;21413;48.032;7.764;2023-04-24T12:46:59;1.00;;;1.00;;
35294;SDS011;21413;48.032;7.764;2023-04-24T12:49:28;1.87;;;0.93;;
35294;SDS011;21413;48.032;7.764;2023-04-24T12:51:54;2.47;;;1.40;;
35294;SDS011;21413;48.032;7.764;2023-04-24T12:54:20;3.03;;;1.00;;
35294;SDS011;21413;48.032;7.764;2023-04-24T12:56:46;1.20;;;1.20;;
35294;SDS011;21413;48.032;7.764;2023-04-24T12:59:16;5.90;;;1.17;;
35294;SDS011;21413;48.032;7.764;2023-04-24T13:01:42;1.23;;;1.13;;
35294;SDS011;21413;48.032;7.764;2023-04-24T13:04:08;1.20;;;1.20;;
35294;SDS011;21413;48.032;7.764;2023-04-24T13:06:34;1.20;;;1.20;;
35294;SDS011;21413;48.032;7.764;2023-04-24T13:09:00;4.20;;;1.20;;
35294;SDS011;21413;48.032;7.764;2023-04-24T13:11:28;1.17;;;1.07;;
35294;SDS011;21413;48.032;7.764;2023-04-24T13:13:54;1.20;;;1.20;;
35294;SDS011;21413;48.032;7.764;2023-04-24T13:16:20;2.10;;;1.10;;
35294;SDS011;21413;48.032;7.764;2023-04-24T13:18:48;1.23;;;1.23;;
35294;SDS011;21413;48.032;7.764;2023-04-24T13:21:13;1.40;;;1.00;;
35294;SDS011;21413;48.032;7.764;2023-04-24T13:23:39;0.93;;;0.93;;
35294;SDS011;21413;48.032;7.764;2023-04-24T13:26:06;1.47;;;1.30;;
35294;SDS011;21413;48.032;7.764;2023-04-24T13:28:32;1.20;;;1.20;;
35294;SDS011;21413;48.032;7.764;2023-04-24T13:31:00;2.87;;;1.30;;
35294;SDS011;21413;48.032;7.764;2023-04-24T13:33:26;1.20;;;1.20;;
35294;SDS011;21413;48.032;7.764;2023-04-24T13:35:52;4.73;;;1.30;;
35294;SDS011;21413;48.032;7.764;2023-04-24T13:38:18;1.00;;;1.00;;
35294;SDS011;21413;48.032;7.764;2023-04-24T13:40:47;4.40;;;1.60;;
35294;SDS011;21413;48.032;7.764;2023-04-24T13:43:13;1.20;;;1.20;;
35294;SDS011;21413;48.032;7.764;2023-04-24T13:45:41;1.10;;;1.10;;
35294;SDS011;21413;48.032;7.764;2023-04-24T13:48:07;1.33;;;1.23;;
35294;SDS011;21413;48.032;7.764;2023-04-24T13:50:34;1.63;;;1.53;;
35294;SDS011;21413;48.032;7.764;2023-04-24T13:53:00;1.93;;;1.60;;
35294;SDS011;21413;48.032;7.764;2023-04-24T13:55:26;3.33;;;1.70;;
35294;SDS011;21413;48.032;7.764;2023-04-24T13:57:52;3.03;;;1.40;;
35294;SDS011;21413;48.032;7.764;2023-04-24T14:00:22;4.30;;;1.53;;
35294;SDS011;21413;48.032;7.764;2023-04-24T14:02:48;3.17;;;1.40;;
35294;SDS011;21413;48.032;7.764;2023-04-24T14:05:14;1.80;;;1.70;;
35294;SDS011;21413;48.032;7.764;2023-04-24T14:07:40;1.80;;;1.70;;
35294;SDS011;21413;48.032;7.764;2023-04-24T14:10:07;1.37;;;1.27;;
35294;SDS011;21413;48.032;7.764;2023-04-24T14:12:34;1.97;;;1.87;;
35294;SDS011;21413;48.032;7.764;2023-04-24T14:15:00;1.50;;;1.50;;
35294;SDS011;21413;48.032;7.764;2023-04-24T14:17:26;4.23;;;1.60;;
35294;SDS011;21413;48.032;7.764;2023-04-24T14:19:52;2.20;;;1.40;;
35294;SDS011;21413;48.032;7.764;2023-04-24T14:22:21;1.60;;;1.50;;
35294;SDS011;21413;48.032;7.764;2023-04-24T14:24:47;1.53;;;1.50;;
35294;SDS011;21413;48.032;7.764;2023-04-24T14:27:13;1.20;;;1.20;;
35294;SDS011;21413;48.032;7.764;2023-04-24T14:29:39;1.67;;;1.57;;
35294;SDS011;21413;48.032;7.764;2023-04-24T14:32:05;1.20;;;1.20;;
35294;SDS011;21413;48.032;7.764;2023-04-24T14:34:31;2.83;;;1.67;;
35294;SDS011;21413;48.032;7.764;2023-04-24T14:36:57;2.20;;;1.40;;
35294;SDS011;21413;48.032;7.764;2023-04-24T14:39:23;2.40;;;1.50;;
35294;SDS011;21413;48.032;7.764;2023-04-24T14:41:49;1.30;;;1.30;;
35294;SDS011;21413;48.032;7.764;2023-04-24T14:44:18;1.23;;;1.23;;
35294;SDS011;21413;48.032;7.764;2023-04-24T14:46:44;2.50;;;1.60;;
35294;SDS011;21413;48.032;7.764;2023-04-24T14:49:11;2.33;;;1.40;;
35294;SDS011;21413;48.032;7.764;2023-04-24T14:51:39;1.20;;;1.20;;
35294;SDS011;21413;48.032;7.764;2023-04-24T14:54:06;1.80;;;1.70;;
35294;SDS011;21413;48.032;7.764;2023-04-24T14:56:32;1.03;;;1.03;;
35294;SDS011;21413;48.032;7.764;2023-04-24T14:58:58;1.00;;;1.00;;